Terminal Aerodrome Forecast
Issued by NWS Corpus Christi, TX

Home | Current Version | Previous Version | Text Only | Print | Product List | Glossary On
Versions: 1 2 3 4 5 6 7 8 9 10 11 12 13 14
543
FTUS44 KCRP 260221 AAA
TAFCRP
TAF AMD
KCRP 260221Z 2602/2624 16019G32KT P6SM BKN012
      TEMPO 2602/2604 SCT012
     FM260400 16015G26KT P6SM BKN012
      TEMPO 2608/2611 BKN007
     FM261500 27014G21KT P6SM SKC=

USA.gov is the U.S. government's official web portal to all federal, state and local government web resources and services.